sensor_id;sensor_type;location;lat;lon;timestamp;temperature;humidity
7588;DHT22;3835;48.850;8.938;2023-05-13T00:01:19;10.70;99.90
7588;DHT22;3835;48.850;8.938;2023-05-13T00:03:46;10.70;99.90
7588;DHT22;3835;48.850;8.938;2023-05-13T00:06:12;10.70;99.90
7588;DHT22;3835;48.850;8.938;2023-05-13T00:08:39;10.60;99.90
7588;DHT22;3835;48.850;8.938;2023-05-13T00:11:07;10.60;99.90
7588;DHT22;3835;48.850;8.938;2023-05-13T00:13:34;10.60;99.90
7588;DHT22;3835;48.850;8.938;2023-05-13T00:16:01;10.60;99.90
7588;DHT22;3835;48.850;8.938;2023-05-13T00:18:28;10.60;99.90
7588;DHT22;3835;48.850;8.938;2023-05-13T00:20:55;10.60;99.90
7588;DHT22;3835;48.850;8.938;2023-05-13T00:23:22;10.50;99.90
7588;DHT22;3835;48.850;8.938;2023-05-13T00:25:49;10.40;99.90
7588;DHT22;3835;48.850;8.938;2023-05-13T00:28:17;10.50;99.90
7588;DHT22;3835;48.850;8.938;2023-05-13T00:30:45;10.50;99.90
7588;DHT22;3835;48.850;8.938;2023-05-13T00:33:13;10.40;99.90
7588;DHT22;3835;48.850;8.938;2023-05-13T00:35:40;10.40;99.90
7588;DHT22;3835;48.850;8.938;2023-05-13T00:38:07;10.40;99.90
7588;DHT22;3835;48.850;8.938;2023-05-13T00:40:36;10.20;99.90
7588;DHT22;3835;48.850;8.938;2023-05-13T00:43:04;10.20;99.90
7588;DHT22;3835;48.850;8.938;2023-05-13T00:45:32;10.00;99.90
7588;DHT22;3835;48.850;8.938;2023-05-13T00:47:59;9.90;99.90
7588;DHT22;3835;48.850;8.938;2023-05-13T00:50:26;9.90;99.90
7588;DHT22;3835;48.850;8.938;2023-05-13T00:52:53;9.80;99.90
7588;DHT22;3835;48.850;8.938;2023-05-13T00:55:22;9.80;99.90
7588;DHT22;3835;48.850;8.938;2023-05-13T00:57:49;9.80;99.90
7588;DHT22;3835;48.850;8.938;2023-05-13T01:00:16;9.80;99.90
7588;DHT22;3835;48.850;8.938;2023-05-13T01:02:51;9.70;99.90
7588;DHT22;3835;48.850;8.938;2023-05-13T01:05:24;9.70;99.90
7588;DHT22;3835;48.850;8.938;2023-05-13T01:07:58;9.80;99.90
7588;DHT22;3835;48.850;8.938;2023-05-13T01:10:33;9.80;99.90
7588;DHT22;3835;48.850;8.938;2023-05-13T01:13:05;9.70;99.90
7588;DHT22;3835;48.850;8.938;2023-05-13T01:15:37;9.80;99.90
7588;DHT22;3835;48.850;8.938;2023-05-13T01:18:23;9.80;99.90
7588;DHT22;3835;48.850;8.938;2023-05-13T01:20:50;9.70;99.90
7588;DHT22;3835;48.850;8.938;2023-05-13T01:23:18;9.70;99.90
7588;DHT22;3835;48.850;8.938;2023-05-13T01:25:45;9.70;99.90
7588;DHT22;3835;48.850;8.938;2023-05-13T01:28:12;9.70;99.90
7588;DHT22;3835;48.850;8.938;2023-05-13T01:30:39;9.60;99.90
7588;DHT22;3835;48.850;8.938;2023-05-13T01:33:06;9.50;99.90
7588;DHT22;3835;48.850;8.938;2023-05-13T01:35:33;9.50;99.90
7588;DHT22;3835;48.850;8.938;2023-05-13T01:38:01;9.50;99.90
7588;DHT22;3835;48.850;8.938;2023-05-13T01:40:30;9.50;99.90
7588;DHT22;3835;48.850;8.938;2023-05-13T01:42:58;9.50;99.90
7588;DHT22;3835;48.850;8.938;2023-05-13T01:45:26;9.50;99.90
7588;DHT22;3835;48.850;8.938;2023-05-13T01:47:53;9.60;99.90
7588;DHT22;3835;48.850;8.938;2023-05-13T01:50:20;9.60;99.90
7588;DHT22;3835;48.850;8.938;2023-05-13T01:52:47;9.70;99.90
7588;DHT22;3835;48.850;8.938;2023-05-13T01:55:14;9.60;99.90
7588;DHT22;3835;48.850;8.938;2023-05-13T01:57:42;9.60;99.90
7588;DHT22;3835;48.850;8.938;2023-05-13T02:00:10;9.50;99.90
7588;DHT22;3835;48.850;8.938;2023-05-13T02:02:37;9.50;99.90
7588;DHT22;3835;48.850;8.938;2023-05-13T02:05:04;9.40;99.90
7588;DHT22;3835;48.850;8.938;2023-05-13T02:07:32;9.40;99.90
7588;DHT22;3835;48.850;8.938;2023-05-13T02:09:59;9.30;99.90
7588;DHT22;3835;48.850;8.938;2023-05-13T02:12:26;9.30;99.90
7588;DHT22;3835;48.850;8.938;2023-05-13T02:14:54;9.20;99.90
7588;DHT22;3835;48.850;8.938;2023-05-13T02:17:21;9.20;99.90
7588;DHT22;3835;48.850;8.938;2023-05-13T02:19:48;9.10;99.90
7588;DHT22;3835;48.850;8.938;2023-05-13T02:22:15;9.10;99.90
7588;DHT22;3835;48.850;8.938;2023-05-13T02:24:41;9.10;99.90
7588;DHT22;3835;48.850;8.938;2023-05-13T02:27:08;9.00;99.90
7588;DHT22;3835;48.850;8.938;2023-05-13T02:29:37;9.00;99.90
7588;DHT22;3835;48.850;8.938;2023-05-13T02:32:06;8.90;99.90
7588;DHT22;3835;48.850;8.938;2023-05-13T02:34:32;8.90;99.90
7588;DHT22;3835;48.850;8.938;2023-05-13T02:36:59;8.80;99.90
7588;DHT22;3835;48.850;8.938;2023-05-13T02:39:26;8.80;99.90
7588;DHT22;3835;48.850;8.938;2023-05-13T02:41:53;8.80;99.90
7588;DHT22;3835;48.850;8.938;2023-05-13T02:44:19;8.80;99.90
7588;DHT22;3835;48.850;8.938;2023-05-13T02:46:46;8.80;99.90
7588;DHT22;3835;48.850;8.938;2023-05-13T02:49:14;8.80;99.90
7588;DHT22;3835;48.850;8.938;2023-05-13T02:51:41;8.80;99.90
7588;DHT22;3835;48.850;8.938;2023-05-13T02:54:08;8.90;99.90
7588;DHT22;3835;48.850;8.938;2023-05-13T02:56:34;8.80;99.90
7588;DHT22;3835;48.850;8.938;2023-05-13T02:59:01;8.70;99.90
7588;DHT22;3835;48.850;8.938;2023-05-13T03:01:28;8.60;99.90
7588;DHT22;3835;48.850;8.938;2023-05-13T03:03:55;8.60;99.90
7588;DHT22;3835;48.850;8.938;2023-05-13T03:06:23;8.50;99.90
7588;DHT22;3835;48.850;8.938;2023-05-13T03:08:49;8.50;99.90
7588;DHT22;3835;48.850;8.938;2023-05-13T03:11:16;8.50;99.90
7588;DHT22;3835;48.850;8.938;2023-05-13T03:13:43;8.60;99.90
7588;DHT22;3835;48.850;8.938;2023-05-13T03:16:10;8.80;99.90
7588;DHT22;3835;48.850;8.938;2023-05-13T03:18:36;8.70;99.90
7588;DHT22;3835;48.850;8.938;2023-05-13T03:21:03;8.60;99.90
7588;DHT22;3835;48.850;8.938;2023-05-13T03:23:32;8.60;99.90
7588;DHT22;3835;48.850;8.938;2023-05-13T03:25:59;8.70;99.90
7588;DHT22;3835;48.850;8.938;2023-05-13T03:28:26;8.60;99.90
7588;DHT22;3835;48.850;8.938;2023-05-13T03:30:53;8.60;99.90
7588;DHT22;3835;48.850;8.938;2023-05-13T03:33:20;8.50;99.90
7588;DHT22;3835;48.850;8.938;2023-05-13T03:35:47;8.40;99.90
7588;DHT22;3835;48.850;8.938;2023-05-13T03:38:14;8.50;99.90
7588;DHT22;3835;48.850;8.938;2023-05-13T03:40:42;8.50;99.90
7588;DHT22;3835;48.850;8.938;2023-05-13T03:43:09;8.50;99.90
7588;DHT22;3835;48.850;8.938;2023-05-13T03:45:35;8.40;99.90
7588;DHT22;3835;48.850;8.938;2023-05-13T03:48:02;8.40;99.90
7588;DHT22;3835;48.850;8.938;2023-05-13T03:50:29;8.30;99.90
7588;DHT22;3835;48.850;8.938;2023-05-13T03:52:56;8.30;99.90
7588;DHT22;3835;48.850;8.938;2023-05-13T03:55:23;8.30;99.90
7588;DHT22;3835;48.850;8.938;2023-05-13T03:57:51;8.30;99.90
7588;DHT22;3835;48.850;8.938;2023-05-13T04:00:18;8.20;99.90
7588;DHT22;3835;48.850;8.938;2023-05-13T04:02:45;8.20;99.90
7588;DHT22;3835;48.850;8.938;2023-05-13T04:05:11;8.20;99.90
7588;DHT22;3835;48.850;8.938;2023-05-13T04:07:38;8.20;99.90
7588;DHT22;3835;48.850;8.938;2023-05-13T04:10:06;8.30;99.90
7588;DHT22;3835;48.850;8.938;2023-05-13T04:12:34;8.40;99.90
7588;DHT22;3835;48.850;8.938;2023-05-13T04:15:04;8.50;99.90
7588;DHT22;3835;48.850;8.938;2023-05-13T04:17:30;8.40;99.90
7588;DHT22;3835;48.850;8.938;2023-05-13T04:19:57;8.50;99.90
7588;DHT22;3835;48.850;8.938;2023-05-13T04:22:24;8.50;99.90
7588;DHT22;3835;48.850;8.938;2023-05-13T04:24:51;8.60;99.90
7588;DHT22;3835;48.850;8.938;2023-05-13T04:27:21;8.60;99.90
7588;DHT22;3835;48.850;8.938;2023-05-13T04:29:47;8.60;99.90
7588;DHT22;3835;48.850;8.938;2023-05-13T04:32:16;8.60;99.90
7588;DHT22;3835;48.850;8.938;2023-05-13T04:34:46;8.70;99.90
7588;DHT22;3835;48.850;8.938;2023-05-13T04:37:13;8.80;99.90
7588;DHT22;3835;48.850;8.938;2023-05-13T04:39:40;8.80;99.90
7588;DHT22;3835;48.850;8.938;2023-05-13T04:42:06;8.90;99.90
7588;DHT22;3835;48.850;8.938;2023-05-13T04:44:33;9.00;99.90
7588;DHT22;3835;48.850;8.938;2023-05-13T04:47:00;9.00;99.90
7588;DHT22;3835;48.850;8.938;2023-05-13T04:49:28;9.10;99.90
7588;DHT22;3835;48.850;8.938;2023-05-13T04:51:55;9.10;99.90
7588;DHT22;3835;48.850;8.938;2023-05-13T04:54:22;9.20;99.90
7588;DHT22;3835;48.850;8.938;2023-05-13T04:56:50;9.20;99.90
7588;DHT22;3835;48.850;8.938;2023-05-13T04:59:17;9.40;99.90
7588;DHT22;3835;48.850;8.938;2023-05-13T05:01:43;9.40;99.90
7588;DHT22;3835;48.850;8.938;2023-05-13T05:04:10;9.40;99.90
7588;DHT22;3835;48.850;8.938;2023-05-13T05:06:39;9.30;99.90
7588;DHT22;3835;48.850;8.938;2023-05-13T05:09:05;9.40;99.90
7588;DHT22;3835;48.850;8.938;2023-05-13T05:11:32;9.50;99.90
7588;DHT22;3835;48.850;8.938;2023-05-13T05:13:59;9.50;99.90
7588;DHT22;3835;48.850;8.938;2023-05-13T05:16:25;9.60;99.90
7588;DHT22;3835;48.850;8.938;2023-05-13T05:18:52;9.60;99.90
7588;DHT22;3835;48.850;8.938;2023-05-13T05:21:19;9.60;99.90
7588;DHT22;3835;48.850;8.938;2023-05-13T05:23:47;9.50;99.90
7588;DHT22;3835;48.850;8.938;2023-05-13T05:26:14;9.50;99.90
7588;DHT22;3835;48.850;8.938;2023-05-13T05:28:41;9.40;99.90
7588;DHT22;3835;48.850;8.938;2023-05-13T05:31:08;9.50;99.90
7588;DHT22;3835;48.850;8.938;2023-05-13T05:33:35;9.60;99.90
7588;DHT22;3835;48.850;8.938;2023-05-13T05:36:02;9.60;99.90
7588;DHT22;3835;48.850;8.938;2023-05-13T05:38:29;9.50;99.90
7588;DHT22;3835;48.850;8.938;2023-05-13T05:40:57;9.50;99.90
7588;DHT22;3835;48.850;8.938;2023-05-13T05:43:24;9.40;99.90
7588;DHT22;3835;48.850;8.938;2023-05-13T05:45:51;9.50;99.90
7588;DHT22;3835;48.850;8.938;2023-05-13T05:48:17;9.50;99.90
7588;DHT22;3835;48.850;8.938;2023-05-13T05:50:44;9.50;99.90
7588;DHT22;3835;48.850;8.938;2023-05-13T05:53:11;9.50;99.90
7588;DHT22;3835;48.850;8.938;2023-05-13T05:55:38;9.70;99.90
7588;DHT22;3835;48.850;8.938;2023-05-13T05:58:08;9.70;99.90
7588;DHT22;3835;48.850;8.938;2023-05-13T06:00:35;9.80;99.90
7588;DHT22;3835;48.850;8.938;2023-05-13T06:03:02;9.80;99.90
7588;DHT22;3835;48.850;8.938;2023-05-13T06:05:29;9.80;99.90
7588;DHT22;3835;48.850;8.938;2023-05-13T06:07:56;9.70;99.90
7588;DHT22;3835;48.850;8.938;2023-05-13T06:10:22;9.70;99.90
7588;DHT22;3835;48.850;8.938;2023-05-13T06:12:49;9.80;99.90
7588;DHT22;3835;48.850;8.938;2023-05-13T06:15:18;10.00;99.90
7588;DHT22;3835;48.850;8.938;2023-05-13T06:17:44;9.90;99.90
7588;DHT22;3835;48.850;8.938;2023-05-13T06:20:11;10.10;99.90
7588;DHT22;3835;48.850;8.938;2023-05-13T06:22:38;10.20;99.90
7588;DHT22;3835;48.850;8.938;2023-05-13T06:25:06;10.40;99.90
7588;DHT22;3835;48.850;8.938;2023-05-13T06:27:32;10.60;99.90
7588;DHT22;3835;48.850;8.938;2023-05-13T06:29:59;10.60;99.90
7588;DHT22;3835;48.850;8.938;2023-05-13T06:32:27;10.80;99.90
7588;DHT22;3835;48.850;8.938;2023-05-13T06:34:54;10.90;99.90
7588;DHT22;3835;48.850;8.938;2023-05-13T06:37:21;11.00;99.90
7588;DHT22;3835;48.850;8.938;2023-05-13T06:39:47;11.10;99.90
7588;DHT22;3835;48.850;8.938;2023-05-13T06:42:14;11.10;99.90
7588;DHT22;3835;48.850;8.938;2023-05-13T06:44:41;11.10;99.90
7588;DHT22;3835;48.850;8.938;2023-05-13T06:47:08;11.10;99.90
7588;DHT22;3835;48.850;8.938;2023-05-13T06:49:40;11.00;99.90
7588;DHT22;3835;48.850;8.938;2023-05-13T06:52:07;11.10;99.90
7588;DHT22;3835;48.850;8.938;2023-05-13T06:54:34;11.10;99.90
7588;DHT22;3835;48.850;8.938;2023-05-13T06:57:01;11.20;99.90
7588;DHT22;3835;48.850;8.938;2023-05-13T06:59:29;11.40;99.90
7588;DHT22;3835;48.850;8.938;2023-05-13T07:01:56;11.50;99.90
7588;DHT22;3835;48.850;8.938;2023-05-13T07:04:23;11.70;99.90
7588;DHT22;3835;48.850;8.938;2023-05-13T07:06:51;11.90;99.90
7588;DHT22;3835;48.850;8.938;2023-05-13T07:09:19;12.10;99.90
7588;DHT22;3835;48.850;8.938;2023-05-13T07:11:45;12.30;99.90
7588;DHT22;3835;48.850;8.938;2023-05-13T07:14:12;12.40;99.90
7588;DHT22;3835;48.850;8.938;2023-05-13T07:16:39;12.50;99.90
7588;DHT22;3835;48.850;8.938;2023-05-13T07:19:06;12.60;99.90
7588;DHT22;3835;48.850;8.938;2023-05-13T07:21:32;12.70;99.90
7588;DHT22;3835;48.850;8.938;2023-05-13T07:24:00;12.60;99.90
7588;DHT22;3835;48.850;8.938;2023-05-13T07:26:29;12.60;99.90
7588;DHT22;3835;48.850;8.938;2023-05-13T07:28:56;12.40;99.90
7588;DHT22;3835;48.850;8.938;2023-05-13T07:31:24;12.40;99.90
7588;DHT22;3835;48.850;8.938;2023-05-13T07:33:50;12.40;99.90
7588;DHT22;3835;48.850;8.938;2023-05-13T07:36:17;12.40;99.90
7588;DHT22;3835;48.850;8.938;2023-05-13T07:38:44;12.40;99.90
7588;DHT22;3835;48.850;8.938;2023-05-13T07:41:12;12.30;99.90
7588;DHT22;3835;48.850;8.938;2023-05-13T07:43:39;12.10;99.90
7588;DHT22;3835;48.850;8.938;2023-05-13T07:46:06;11.90;99.90
7588;DHT22;3835;48.850;8.938;2023-05-13T07:48:32;11.80;99.90
7588;DHT22;3835;48.850;8.938;2023-05-13T07:50:59;11.70;99.90
7588;DHT22;3835;48.850;8.938;2023-05-13T07:53:26;11.70;99.90
7588;DHT22;3835;48.850;8.938;2023-05-13T07:55:53;11.70;99.90
7588;DHT22;3835;48.850;8.938;2023-05-13T07:58:21;11.60;99.90
7588;DHT22;3835;48.850;8.938;2023-05-13T08:00:49;11.60;99.90
7588;DHT22;3835;48.850;8.938;2023-05-13T08:03:15;11.60;99.90
7588;DHT22;3835;48.850;8.938;2023-05-13T08:05:42;11.60;99.90
7588;DHT22;3835;48.850;8.938;2023-05-13T08:08:09;11.80;99.90
7588;DHT22;3835;48.850;8.938;2023-05-13T08:10:36;12.00;99.90
7588;DHT22;3835;48.850;8.938;2023-05-13T08:13:03;12.00;99.90
7588;DHT22;3835;48.850;8.938;2023-05-13T08:15:31;12.00;99.90
7588;DHT22;3835;48.850;8.938;2023-05-13T08:17:57;12.00;99.90
7588;DHT22;3835;48.850;8.938;2023-05-13T08:20:24;12.10;99.90
7588;DHT22;3835;48.850;8.938;2023-05-13T08:22:54;12.00;99.90
7588;DHT22;3835;48.850;8.938;2023-05-13T08:25:21;12.20;99.90
7588;DHT22;3835;48.850;8.938;2023-05-13T08:27:48;12.40;99.90
7588;DHT22;3835;48.850;8.938;2023-05-13T08:30:15;12.40;99.90
7588;DHT22;3835;48.850;8.938;2023-05-13T08:32:44;12.40;99.90
7588;DHT22;3835;48.850;8.938;2023-05-13T08:35:10;12.30;99.90
7588;DHT22;3835;48.850;8.938;2023-05-13T08:37:37;12.30;99.90
7588;DHT22;3835;48.850;8.938;2023-05-13T08:40:05;12.30;99.90
7588;DHT22;3835;48.850;8.938;2023-05-13T08:42:32;12.40;99.90
7588;DHT22;3835;48.850;8.938;2023-05-13T08:45:03;12.40;99.90
7588;DHT22;3835;48.850;8.938;2023-05-13T08:47:35;12.40;99.90
7588;DHT22;3835;48.850;8.938;2023-05-13T08:50:07;12.40;99.90
7588;DHT22;3835;48.850;8.938;2023-05-13T08:52:34;12.30;99.90
7588;DHT22;3835;48.850;8.938;2023-05-13T08:55:02;12.40;99.90
7588;DHT22;3835;48.850;8.938;2023-05-13T08:57:29;12.40;99.90
7588;DHT22;3835;48.850;8.938;2023-05-13T08:59:56;12.50;99.90
7588;DHT22;3835;48.850;8.938;2023-05-13T09:02:22;12.40;99.90
7588;DHT22;3835;48.850;8.938;2023-05-13T09:04:52;12.50;99.90
7588;DHT22;3835;48.850;8.938;2023-05-13T09:07:21;12.50;99.90
7588;DHT22;3835;48.850;8.938;2023-05-13T09:09:48;12.60;99.90
7588;DHT22;3835;48.850;8.938;2023-05-13T09:12:40;12.60;99.90
7588;DHT22;3835;48.850;8.938;2023-05-13T09:15:08;12.50;99.90
7588;DHT22;3835;48.850;8.938;2023-05-13T09:17:36;12.60;99.90
7588;DHT22;3835;48.850;8.938;2023-05-13T09:20:06;12.50;99.90
7588;DHT22;3835;48.850;8.938;2023-05-13T09:22:35;12.50;99.90
7588;DHT22;3835;48.850;8.938;2023-05-13T09:25:02;12.50;99.90
7588;DHT22;3835;48.850;8.938;2023-05-13T09:27:35;12.50;99.90
7588;DHT22;3835;48.850;8.938;2023-05-13T09:30:03;12.60;99.90
7588;DHT22;3835;48.850;8.938;2023-05-13T09:32:30;12.60;99.90
7588;DHT22;3835;48.850;8.938;2023-05-13T09:35:07;12.50;99.90
7588;DHT22;3835;48.850;8.938;2023-05-13T09:37:36;12.40;99.90
7588;DHT22;3835;48.850;8.938;2023-05-13T09:40:03;12.30;99.90
7588;DHT22;3835;48.850;8.938;2023-05-13T09:42:30;12.20;99.90
7588;DHT22;3835;48.850;8.938;2023-05-13T09:45:03;12.30;99.90
7588;DHT22;3835;48.850;8.938;2023-05-13T09:47:31;12.30;99.90
7588;DHT22;3835;48.850;8.938;2023-05-13T09:50:00;12.50;99.90
7588;DHT22;3835;48.850;8.938;2023-05-13T09:52:28;12.50;99.90
7588;DHT22;3835;48.850;8.938;2023-05-13T09:54:56;12.50;99.90
7588;DHT22;3835;48.850;8.938;2023-05-13T09:57:25;12.70;99.90
7588;DHT22;3835;48.850;8.938;2023-05-13T09:59:55;12.90;99.90
7588;DHT22;3835;48.850;8.938;2023-05-13T10:02:23;13.10;99.90
7588;DHT22;3835;48.850;8.938;2023-05-13T10:04:51;13.10;99.90
7588;DHT22;3835;48.850;8.938;2023-05-13T10:07:19;13.20;99.90
7588;DHT22;3835;48.850;8.938;2023-05-13T10:09:50;13.30;99.90
7588;DHT22;3835;48.850;8.938;2023-05-13T10:12:20;13.40;99.90
7588;DHT22;3835;48.850;8.938;2023-05-13T10:14:48;13.50;99.90
7588;DHT22;3835;48.850;8.938;2023-05-13T10:17:18;13.60;99.90
7588;DHT22;3835;48.850;8.938;2023-05-13T10:19:47;13.70;99.90
7588;DHT22;3835;48.850;8.938;2023-05-13T10:22:14;13.70;99.90
7588;DHT22;3835;48.850;8.938;2023-05-13T10:24:41;13.80;99.90
7588;DHT22;3835;48.850;8.938;2023-05-13T10:27:09;13.70;99.90
7588;DHT22;3835;48.850;8.938;2023-05-13T10:29:38;13.70;99.90
7588;DHT22;3835;48.850;8.938;2023-05-13T10:32:07;13.70;99.90
7588;DHT22;3835;48.850;8.938;2023-05-13T10:34:35;13.80;99.90
7588;DHT22;3835;48.850;8.938;2023-05-13T10:37:20;14.10;99.90
7588;DHT22;3835;48.850;8.938;2023-05-13T10:40:22;13.80;99.90
7588;DHT22;3835;48.850;8.938;2023-05-13T10:42:58;13.90;99.90
7588;DHT22;3835;48.850;8.938;2023-05-13T10:45:34;13.90;99.90
7588;DHT22;3835;48.850;8.938;2023-05-13T10:48:05;14.00;99.90
7588;DHT22;3835;48.850;8.938;2023-05-13T10:50:35;13.90;99.90
7588;DHT22;3835;48.850;8.938;2023-05-13T10:53:07;14.00;99.90
7588;DHT22;3835;48.850;8.938;2023-05-13T10:55:39;13.90;99.90
7588;DHT22;3835;48.850;8.938;2023-05-13T10:58:08;13.90;99.90
7588;DHT22;3835;48.850;8.938;2023-05-13T11:00:38;14.00;99.90
7588;DHT22;3835;48.850;8.938;2023-05-13T11:03:10;14.10;99.90
7588;DHT22;3835;48.850;8.938;2023-05-13T11:05:39;14.20;99.90
7588;DHT22;3835;48.850;8.938;2023-05-13T11:08:05;14.00;99.90
7588;DHT22;3835;48.850;8.938;2023-05-13T11:10:32;14.20;99.90
7588;DHT22;3835;48.850;8.938;2023-05-13T11:13:20;14.40;99.90
7588;DHT22;3835;48.850;8.938;2023-05-13T11:15:52;14.40;99.90
7588;DHT22;3835;48.850;8.938;2023-05-13T11:18:28;14.60;99.90
7588;DHT22;3835;48.850;8.938;2023-05-13T11:20:55;14.80;99.90
7588;DHT22;3835;48.850;8.938;2023-05-13T11:23:21;14.80;99.90
7588;DHT22;3835;48.850;8.938;2023-05-13T11:26:09;14.80;99.90
7588;DHT22;3835;48.850;8.938;2023-05-13T11:28:53;14.80;99.90
7588;DHT22;3835;48.850;8.938;2023-05-13T11:31:22;14.90;99.90
7588;DHT22;3835;48.850;8.938;2023-05-13T11:34:08;15.00;99.90
7588;DHT22;3835;48.850;8.938;2023-05-13T11:36:36;15.20;99.90
7588;DHT22;3835;48.850;8.938;2023-05-13T11:39:08;15.20;99.90
7588;DHT22;3835;48.850;8.938;2023-05-13T11:41:38;15.10;99.90
7588;DHT22;3835;48.850;8.938;2023-05-13T11:44:06;14.90;99.90
7588;DHT22;3835;48.850;8.938;2023-05-13T11:46:35;14.60;99.90
7588;DHT22;3835;48.850;8.938;2023-05-13T11:49:02;14.30;99.90
7588;DHT22;3835;48.850;8.938;2023-05-13T11:51:29;14.50;99.90
7588;DHT22;3835;48.850;8.938;2023-05-13T11:54:02;14.60;99.90
7588;DHT22;3835;48.850;8.938;2023-05-13T11:56:29;14.50;99.90
7588;DHT22;3835;48.850;8.938;2023-05-13T11:59:12;14.60;99.90
7588;DHT22;3835;48.850;8.938;2023-05-13T12:01:41;14.60;99.90
7588;DHT22;3835;48.850;8.938;2023-05-13T12:04:08;14.70;99.90
7588;DHT22;3835;48.850;8.938;2023-05-13T12:06:42;14.90;99.90
7588;DHT22;3835;48.850;8.938;2023-05-13T12:09:11;15.10;99.90
7588;DHT22;3835;48.850;8.938;2023-05-13T12:11:38;15.30;99.90
7588;DHT22;3835;48.850;8.938;2023-05-13T12:14:05;15.40;99.90
7588;DHT22;3835;48.850;8.938;2023-05-13T12:16:32;15.30;99.90
7588;DHT22;3835;48.850;8.938;2023-05-13T12:19:03;15.60;99.90
7588;DHT22;3835;48.850;8.938;2023-05-13T12:21:30;15.80;99.90
7588;DHT22;3835;48.850;8.938;2023-05-13T12:23:58;16.00;99.90
7588;DHT22;3835;48.850;8.938;2023-05-13T12:26:25;16.10;99.90
7588;DHT22;3835;48.850;8.938;2023-05-13T12:28:56;16.10;99.90
7588;DHT22;3835;48.850;8.938;2023-05-13T12:31:23;16.30;99.90
7588;DHT22;3835;48.850;8.938;2023-05-13T12:33:50;15.60;99.90
7588;DHT22;3835;48.850;8.938;2023-05-13T12:36:19;15.40;99.90
7588;DHT22;3835;48.850;8.938;2023-05-13T12:38:57;15.50;99.90
7588;DHT22;3835;48.850;8.938;2023-05-13T12:41:25;15.70;99.90
7588;DHT22;3835;48.850;8.938;2023-05-13T12:43:56;15.60;99.90
7588;DHT22;3835;48.850;8.938;2023-05-13T12:46:23;15.40;99.90
7588;DHT22;3835;48.850;8.938;2023-05-13T12:48:53;15.10;99.90
7588;DHT22;3835;48.850;8.938;2023-05-13T12:51:22;15.30;99.90
7588;DHT22;3835;48.850;8.938;2023-05-13T12:53:49;15.80;99.90
7588;DHT22;3835;48.850;8.938;2023-05-13T12:56:18;16.20;99.90
7588;DHT22;3835;48.850;8.938;2023-05-13T12:58:47;16.40;99.90
7588;DHT22;3835;48.850;8.938;2023-05-13T13:01:14;16.20;99.90
7588;DHT22;3835;48.850;8.938;2023-05-13T13:03:41;16.20;99.90
7588;DHT22;3835;48.850;8.938;2023-05-13T13:06:08;16.30;99.90
7588;DHT22;3835;48.850;8.938;2023-05-13T13:08:36;16.40;99.90
7588;DHT22;3835;48.850;8.938;2023-05-13T13:11:03;16.30;99.90
7588;DHT22;3835;48.850;8.938;2023-05-13T13:13:30;16.60;99.90
7588;DHT22;3835;48.850;8.938;2023-05-13T13:15:57;16.60;99.90
7588;DHT22;3835;48.850;8.938;2023-05-13T13:18:24;16.70;99.90
7588;DHT22;3835;48.850;8.938;2023-05-13T13:20:52;16.80;99.90
7588;DHT22;3835;48.850;8.938;2023-05-13T13:23:19;16.90;99.90
7588;DHT22;3835;48.850;8.938;2023-05-13T13:25:47;17.00;99.90
7588;DHT22;3835;48.850;8.938;2023-05-13T13:28:14;16.90;99.90
7588;DHT22;3835;48.850;8.938;2023-05-13T13:30:41;16.60;99.90
7588;DHT22;3835;48.850;8.938;2023-05-13T13:33:12;16.30;99.90
7588;DHT22;3835;48.850;8.938;2023-05-13T13:35:39;16.10;99.90
7588;DHT22;3835;48.850;8.938;2023-05-13T13:38:06;15.90;99.90
7588;DHT22;3835;48.850;8.938;2023-05-13T13:40:33;15.80;99.90
7588;DHT22;3835;48.850;8.938;2023-05-13T13:43:01;15.80;99.90
7588;DHT22;3835;48.850;8.938;2023-05-13T13:45:28;15.90;99.90
7588;DHT22;3835;48.850;8.938;2023-05-13T13:47:55;16.10;99.90
7588;DHT22;3835;48.850;8.938;2023-05-13T13:50:22;16.30;99.90
7588;DHT22;3835;48.850;8.938;2023-05-13T13:52:49;16.50;99.90
7588;DHT22;3835;48.850;8.938;2023-05-13T13:55:17;16.40;99.90
7588;DHT22;3835;48.850;8.938;2023-05-13T13:57:43;16.40;99.90
7588;DHT22;3835;48.850;8.938;2023-05-13T14:00:13;16.30;99.90
7588;DHT22;3835;48.850;8.938;2023-05-13T14:02:40;15.90;99.90
7588;DHT22;3835;48.850;8.938;2023-05-13T14:05:07;15.80;99.90
7588;DHT22;3835;48.850;8.938;2023-05-13T14:07:34;15.80;99.90
7588;DHT22;3835;48.850;8.938;2023-05-13T14:10:02;16.00;99.90
7588;DHT22;3835;48.850;8.938;2023-05-13T14:12:28;15.80;99.90
7588;DHT22;3835;48.850;8.938;2023-05-13T14:14:55;16.00;99.90
7588;DHT22;3835;48.850;8.938;2023-05-13T14:17:23;16.10;99.90
7588;DHT22;3835;48.850;8.938;2023-05-13T14:19:50;16.10;99.90
7588;DHT22;3835;48.850;8.938;2023-05-13T14:22:19;16.30;99.90
7588;DHT22;3835;48.850;8.938;2023-05-13T14:24:49;16.30;99.90
7588;DHT22;3835;48.850;8.938;2023-05-13T14:27:16;16.50;99.90
7588;DHT22;3835;48.850;8.938;2023-05-13T14:29:43;16.70;99.90
7588;DHT22;3835;48.850;8.938;2023-05-13T14:32:10;16.80;99.90
7588;DHT22;3835;48.850;8.938;2023-05-13T14:34:38;16.70;99.90
7588;DHT22;3835;48.850;8.938;2023-05-13T14:37:06;16.70;99.90
7588;DHT22;3835;48.850;8.938;2023-05-13T14:39:33;17.00;99.90
7588;DHT22;3835;48.850;8.938;2023-05-13T14:41:59;16.60;99.90
7588;DHT22;3835;48.850;8.938;2023-05-13T14:44:26;16.30;99.90
7588;DHT22;3835;48.850;8.938;2023-05-13T14:46:53;16.10;99.90
7588;DHT22;3835;48.850;8.938;2023-05-13T14:49:20;16.30;99.90
7588;DHT22;3835;48.850;8.938;2023-05-13T14:51:48;16.50;99.90
7588;DHT22;3835;48.850;8.938;2023-05-13T14:54:15;16.50;99.90
7588;DHT22;3835;48.850;8.938;2023-05-13T14:56:42;16.60;99.90
7588;DHT22;3835;48.850;8.938;2023-05-13T14:59:09;16.40;99.90
7588;DHT22;3835;48.850;8.938;2023-05-13T15:01:35;16.10;99.90
7588;DHT22;3835;48.850;8.938;2023-05-13T15:04:02;15.60;99.90
7588;DHT22;3835;48.850;8.938;2023-05-13T15:06:29;15.40;99.90
7588;DHT22;3835;48.850;8.938;2023-05-13T15:08:57;15.30;99.90
7588;DHT22;3835;48.850;8.938;2023-05-13T15:11:25;15.20;99.90
7588;DHT22;3835;48.850;8.938;2023-05-13T15:13:52;15.20;99.90
7588;DHT22;3835;48.850;8.938;2023-05-13T15:16:19;15.10;99.90
7588;DHT22;3835;48.850;8.938;2023-05-13T15:18:46;15.20;99.90
7588;DHT22;3835;48.850;8.938;2023-05-13T15:21:14;15.20;99.90
7588;DHT22;3835;48.850;8.938;2023-05-13T15:23:40;15.60;99.90
7588;DHT22;3835;48.850;8.938;2023-05-13T15:26:09;15.50;99.90
7588;DHT22;3835;48.850;8.938;2023-05-13T15:28:35;15.60;99.90
7588;DHT22;3835;48.850;8.938;2023-05-13T15:31:02;15.50;99.90
7588;DHT22;3835;48.850;8.938;2023-05-13T15:33:29;15.10;99.90
7588;DHT22;3835;48.850;8.938;2023-05-13T15:35:57;14.70;99.90
7588;DHT22;3835;48.850;8.938;2023-05-13T15:38:23;14.60;99.90
7588;DHT22;3835;48.850;8.938;2023-05-13T15:40:50;14.50;99.90
7588;DHT22;3835;48.850;8.938;2023-05-13T15:43:18;14.60;99.90
7588;DHT22;3835;48.850;8.938;2023-05-13T15:45:45;14.70;99.90
7588;DHT22;3835;48.850;8.938;2023-05-13T15:48:12;14.60;99.90
7588;DHT22;3835;48.850;8.938;2023-05-13T15:50:38;14.60;99.90
7588;DHT22;3835;48.850;8.938;2023-05-13T15:53:05;14.60;99.90
7588;DHT22;3835;48.850;8.938;2023-05-13T15:55:32;14.70;99.90
7588;DHT22;3835;48.850;8.938;2023-05-13T15:58:01;14.60;99.90
7588;DHT22;3835;48.850;8.938;2023-05-13T16:00:29;14.70;99.90
7588;DHT22;3835;48.850;8.938;2023-05-13T16:02:56;14.70;99.90
7588;DHT22;3835;48.850;8.938;2023-05-13T16:05:22;14.70;99.90
7588;DHT22;3835;48.850;8.938;2023-05-13T16:07:49;14.40;99.90
7588;DHT22;3835;48.850;8.938;2023-05-13T16:10:16;14.40;99.90
7588;DHT22;3835;48.850;8.938;2023-05-13T16:12:43;14.30;99.90